Time;durP1;ratioP1;P1;durP2;ratioP2;P2;SDS_P1;SDS_P2;PMS_P1;PMS_P2;Temp;Humidity;BMP_temperature;BMP_pressure;BME280_temperature;BME280_humidity;BME280_pressure;Samples;Min_cycle;Max_cycle;Signal;HPM_P1;HPM_P2
2021/05/25 00:02:02;;;;;;;0.30;0.30;;;10.00;82.60;;;;;;5077819;28;20037;-74
2021/05/25 00:04:28;;;;;;;0.82;0.50;;;10.00;82.70;;;;;;5112941;28;20038;-73
2021/05/25 00:06:54;;;;;;;0.60;0.45;;;10.00;82.80;;;;;;5113257;28;20122;-74
2021/05/25 00:09:20;;;;;;;0.32;0.32;;;10.00;82.80;;;;;;5112838;28;20054;-74
2021/05/25 00:11:45;;;;;;;0.30;0.30;;;10.00;82.70;;;;;;5095013;28;20035;-75
2021/05/25 00:14:11;;;;;;;0.40;0.40;;;10.00;82.80;;;;;;5078240;28;20059;-74
2021/05/25 00:16:38;;;;;;;0.70;0.50;;;10.10;82.90;;;;;;5094737;28;20052;-73
2021/05/25 00:19:04;;;;;;;0.50;0.40;;;10.00;82.90;;;;;;5112076;28;20044;-74
2021/05/25 00:21:30;;;;;;;0.30;0.30;;;10.00;83.00;;;;;;5095116;28;20040;-75
2021/05/25 00:23:55;;;;;;;0.30;0.30;;;9.90;83.00;;;;;;5077678;28;20067;-75
2021/05/25 00:26:21;;;;;;;0.30;0.30;;;9.90;83.10;;;;;;5077575;28;20392;-74
2021/05/25 00:28:47;;;;;;;0.50;0.50;;;9.90;83.20;;;;;;5094416;28;20096;-74
2021/05/25 00:31:13;;;;;;;0.93;0.50;;;9.90;83.20;;;;;;5092503;28;20040;-74
2021/05/25 00:33:38;;;;;;;1.23;0.63;;;9.80;83.30;;;;;;5112502;28;20130;-74
2021/05/25 00:36:09;;;;;;;0.40;0.40;;;9.80;83.30;;;;;;5094875;28;20126;-75
2021/05/25 00:38:34;;;;;;;0.80;0.60;;;9.80;83.40;;;;;;5112959;28;20126;-75
2021/05/25 00:41:00;;;;;;;0.40;0.40;;;9.80;83.50;;;;;;5112712;28;20067;-74
2021/05/25 00:43:28;;;;;;;0.50;0.50;;;9.80;83.50;;;;;;5094265;28;20051;-75
2021/05/25 00:45:54;;;;;;;0.68;0.52;;;9.80;83.50;;;;;;5094817;28;20047;-75
2021/05/25 00:48:20;;;;;;;0.60;0.50;;;9.80;83.50;;;;;;5112307;28;20031;-74
2021/05/25 00:50:46;;;;;;;0.55;0.55;;;9.80;83.60;;;;;;5077445;28;20399;-74
2021/05/25 00:53:12;;;;;;;0.65;0.55;;;9.70;83.50;;;;;;5112921;28;20040;-74
2021/05/25 00:55:40;;;;;;;0.32;0.32;;;9.80;83.50;;;;;;5094453;28;20059;-75
2021/05/25 00:58:09;;;;;;;0.40;0.40;;;9.80;83.50;;;;;;5112200;28;20122;-75
2021/05/25 01:00:39;;;;;;;0.50;0.50;;;9.80;83.50;;;;;;5077507;28;20384;-74
2021/05/25 01:03:06;;;;;;;0.40;0.40;;;9.80;83.50;;;;;;5112675;28;20220;-74
2021/05/25 01:05:32;;;;;;;0.52;0.47;;;9.80;83.40;;;;;;5077251;28;20032;-74
2021/05/25 01:07:58;;;;;;;0.93;0.70;;;9.80;83.40;;;;;;5075137;28;20046;-74
2021/05/25 01:10:31;;;;;;;0.77;0.60;;;9.80;83.40;;;;;;5093765;28;20093;-74
2021/05/25 01:12:59;;;;;;;0.77;0.50;;;9.80;83.40;;;;;;5093856;28;20078;-74
2021/05/25 01:15:25;;;;;;;0.63;0.50;;;9.70;83.50;;;;;;5077467;28;20113;-74
2021/05/25 01:17:54;;;;;;;1.08;0.70;;;9.70;83.60;;;;;;5093582;28;20031;-74
2021/05/25 01:20:22;;;;;;;0.88;0.50;;;9.70;83.60;;;;;;5093935;28;20043;-74
2021/05/25 01:22:48;;;;;;;0.52;0.40;;;9.70;83.60;;;;;;5093599;28;20130;-74
2021/05/25 01:25:16;;;;;;;0.90;0.52;;;9.70;83.70;;;;;;5076598;28;20546;-74
2021/05/25 01:27:48;;;;;;;0.40;0.40;;;9.50;83.70;;;;;;5112148;28;20138;-74
2021/05/25 01:30:15;;;;;;;0.40;0.40;;;9.60;83.80;;;;;;5113085;28;20134;-75
2021/05/25 01:32:41;;;;;;;0.70;0.40;;;9.50;83.80;;;;;;5096837;28;20492;-74
2021/05/25 01:35:07;;;;;;;0.55;0.32;;;9.50;83.90;;;;;;5115483;28;20130;-75
2021/05/25 01:37:33;;;;;;;0.38;0.38;;;9.50;84.00;;;;;;5115672;28;20127;-75
2021/05/25 01:39:59;;;;;;;0.30;0.30;;;9.50;84.00;;;;;;5080577;28;20066;-74
2021/05/25 01:42:33;;;;;;;0.57;0.50;;;9.40;84.00;;;;;;5097145;28;20031;-74
2021/05/25 01:44:59;;;;;;;0.43;0.40;;;9.50;84.20;;;;;;5097875;28;20055;-75
2021/05/25 01:47:25;;;;;;;0.30;0.30;;;9.40;84.20;;;;;;5115624;28;20039;-75
2021/05/25 01:49:51;;;;;;;0.60;0.30;;;9.40;84.20;;;;;;5095250;28;20043;-75
2021/05/25 01:52:18;;;;;;;0.38;0.35;;;9.40;84.20;;;;;;5079862;28;20048;-74
2021/05/25 01:54:45;;;;;;;0.40;0.40;;;9.50;84.30;;;;;;5115007;28;20128;-74
2021/05/25 01:57:11;;;;;;;0.50;0.30;;;9.30;84.10;;;;;;5079987;28;20048;-74
2021/05/25 01:59:36;;;;;;;0.20;0.20;;;9.30;84.10;;;;;;5079774;28;20039;-75
2021/05/25 02:02:02;;;;;;;0.30;0.30;;;9.30;84.10;;;;;;5096627;28;20104;-75
2021/05/25 02:04:31;;;;;;;0.30;0.30;;;9.30;84.10;;;;;;5114871;28;20056;-74
2021/05/25 02:06:58;;;;;;;0.40;0.40;;;9.30;84.10;;;;;;5097127;28;20047;-77
2021/05/25 02:09:24;;;;;;;0.40;0.30;;;9.20;84.00;;;;;;5096474;28;20073;-75
2021/05/25 02:11:50;;;;;;;0.50;0.30;;;9.20;84.00;;;;;;5097020;28;20433;-74
2021/05/25 02:14:15;;;;;;;0.30;0.30;;;9.20;84.10;;;;;;5079698;28;20069;-74
2021/05/25 02:16:41;;;;;;;1.25;0.20;;;9.10;84.10;;;;;;5096560;28;20111;-74
2021/05/25 02:19:07;;;;;;;0.22;0.22;;;9.10;84.20;;;;;;5096931;28;20395;-74
2021/05/25 02:21:33;;;;;;;0.20;0.20;;;9.10;84.20;;;;;;5115081;28;20071;-74
2021/05/25 02:23:59;;;;;;;0.38;0.30;;;9.10;84.30;;;;;;5114448;28;20031;-75
2021/05/25 02:26:25;;;;;;;0.40;0.30;;;9.10;84.30;;;;;;5094667;28;20549;-74
2021/05/25 02:28:51;;;;;;;0.20;0.20;;;9.10;84.40;;;;;;5114723;28;20046;-75
2021/05/25 02:31:16;;;;;;;0.30;0.30;;;9.10;84.40;;;;;;5095397;28;20487;-75
2021/05/25 02:33:42;;;;;;;0.38;0.22;;;9.00;84.40;;;;;;5079427;28;20181;-75
2021/05/25 02:36:08;;;;;;;0.20;0.20;;;8.90;84.40;;;;;;5096128;28;20044;-74
2021/05/25 02:38:34;;;;;;;0.40;0.35;;;8.90;84.50;;;;;;5079124;28;20434;-74
2021/05/25 02:41:00;;;;;;;0.60;0.30;;;8.80;84.50;;;;;;5096511;28;20039;-74
2021/05/25 02:43:29;;;;;;;0.52;0.32;;;8.80;84.50;;;;;;5093826;28;20129;-74
2021/05/25 02:45:55;;;;;;;0.20;0.20;;;8.80;84.60;;;;;;5095944;28;20047;-74
2021/05/25 02:48:21;;;;;;;0.20;0.20;;;8.80;84.60;;;;;;5095559;28;20036;-75
2021/05/25 02:50:48;;;;;;;0.30;0.30;;;8.70;84.60;;;;;;5095808;28;20040;-75
2021/05/25 02:53:15;;;;;;;0.60;0.30;;;8.70;84.60;;;;;;5114015;28;20050;-74
2021/05/25 02:55:41;;;;;;;0.32;0.30;;;8.70;85.30;;;;;;5113975;28;20048;-74
2021/05/25 02:58:08;;;;;;;0.68;0.38;;;8.60;84.70;;;;;;5095596;28;20561;-74
2021/05/25 03:00:38;;;;;;;0.50;0.30;;;8.60;84.70;;;;;;5062234;28;20036;-75
2021/05/25 03:03:04;;;;;;;0.40;0.25;;;8.60;84.80;;;;;;5078743;28;20134;-75
2021/05/25 03:05:30;;;;;;;0.47;0.38;;;8.60;84.80;;;;;;5095756;28;20123;-74
2021/05/25 03:07:58;;;;;;;0.35;0.35;;;8.60;84.90;;;;;;5078883;28;20139;-74
2021/05/25 03:10:27;;;;;;;0.50;0.20;;;8.50;84.90;;;;;;5114127;28;20036;-75
2021/05/25 03:12:52;;;;;;;0.35;0.30;;;8.50;84.90;;;;;;5078881;28;20051;-74
2021/05/25 03:15:23;;;;;;;0.30;0.30;;;8.40;84.90;;;;;;5094381;28;20081;-75
2021/05/25 03:17:48;;;;;;;0.75;0.25;;;8.40;84.90;;;;;;5095325;28;20067;-74
2021/05/25 03:20:15;;;;;;;0.20;0.20;;;8.40;85.00;;;;;;5078417;28;20070;-74
2021/05/25 03:22:42;;;;;;;0.20;0.20;;;8.40;85.00;;;;;;5078775;28;20032;-75
2021/05/25 03:25:10;;;;;;;0.22;0.22;;;8.40;85.10;;;;;;5095504;28;20035;-76
2021/05/25 03:27:36;;;;;;;0.40;0.40;;;8.30;85.10;;;;;;5114055;28;20039;-75
2021/05/25 03:30:05;;;;;;;0.20;0.20;;;8.30;85.10;;;;;;5095429;28;20040;-75
2021/05/25 03:32:31;;;;;;;0.30;0.30;;;8.20;85.10;;;;;;5095206;28;20067;-75
2021/05/25 03:34:56;;;;;;;0.20;0.20;;;8.20;85.10;;;;;;5095352;28;20147;-75
2021/05/25 03:37:22;;;;;;;0.20;0.13;;;8.20;85.10;;;;;;5113725;28;20035;-75
2021/05/25 03:39:48;;;;;;;0.50;0.25;;;8.30;85.20;;;;;;5113871;28;20376;-75
2021/05/25 03:42:14;;;;;;;0.65;0.30;;;8.20;85.10;;;;;;5078494;28;20059;-75
2021/05/25 03:44:39;;;;;;;0.63;0.22;;;8.20;85.10;;;;;;5061608;28;20034;-75
2021/05/25 03:47:05;;;;;;;0.20;0.20;;;8.20;85.10;;;;;;5095929;28;20048;-74
2021/05/25 03:49:30;;;;;;;0.10;0.10;;;8.20;85.10;;;;;;5093671;28;20040;-77
2021/05/25 03:51:56;;;;;;;0.20;0.20;;;8.20;85.00;;;;;;5078135;28;20051;-75
2021/05/25 03:54:27;;;;;;;0.43;0.10;;;8.30;85.00;;;;;;5112119;28;20494;-75
2021/05/25 03:57:08;;;;;;;0.25;0.25;;;8.30;84.90;;;;;;5095825;28;20130;-74
2021/05/25 03:59:34;;;;;;;0.20;0.20;;;8.30;84.80;;;;;;5080277;28;20093;-75
2021/05/25 04:02:00;;;;;;;0.20;0.13;;;8.30;84.80;;;;;;5095735;28;20506;-75
2021/05/25 04:04:26;;;;;;;0.20;0.20;;;8.30;84.70;;;;;;5095061;28;20071;-75
2021/05/25 04:06:52;;;;;;;0.30;0.30;;;8.30;84.70;;;;;;5113317;28;20078;-75
2021/05/25 04:09:17;;;;;;;0.20;0.20;;;8.40;84.60;;;;;;5078606;28;20047;-74
2021/05/25 04:11:43;;;;;;;0.63;0.22;;;8.40;85.20;;;;;;5094989;28;20073;-75
2021/05/25 04:14:08;;;;;;;0.30;0.30;;;8.40;84.50;;;;;;5113192;28;20058;-74
2021/05/25 04:16:35;;;;;;;0.30;0.30;;;8.50;84.50;;;;;;5078029;28;20465;-75
2021/05/25 04:19:01;;;;;;;0.65;0.40;;;8.40;84.40;;;;;;5112921;28;20491;-75
2021/05/25 04:21:28;;;;;;;0.38;0.32;;;8.50;84.40;;;;;;5113404;28;20130;-75
2021/05/25 04:23:53;;;;;;;0.40;0.40;;;8.50;84.40;;;;;;5094722;28;20044;-74
2021/05/25 04:26:19;;;;;;;0.43;0.30;;;8.50;84.40;;;;;;5094813;28;20047;-74
2021/05/25 04:28:45;;;;;;;0.30;0.22;;;8.40;84.30;;;;;;5112662;28;20047;-74
2021/05/25 04:31:10;;;;;;;0.47;0.47;;;8.50;84.40;;;;;;5112752;28;20186;-75
2021/05/25 04:33:36;;;;;;;0.50;0.40;;;8.40;84.40;;;;;;5094515;28;20180;-75
2021/05/25 04:36:02;;;;;;;0.40;0.35;;;8.50;84.40;;;;;;5112418;28;20044;-74
2021/05/25 04:38:28;;;;;;;0.40;0.40;;;8.40;84.50;;;;;;5112864;28;20051;-75
2021/05/25 04:40:53;;;;;;;0.40;0.30;;;8.60;84.60;;;;;;5077425;28;20038;-75
2021/05/25 04:43:19;;;;;;;0.47;0.35;;;8.50;84.60;;;;;;5094928;28;20067;-75
2021/05/25 04:45:46;;;;;;;0.40;0.40;;;8.50;84.60;;;;;;5113004;28;20088;-75
2021/05/25 04:48:12;;;;;;;0.47;0.40;;;8.50;84.60;;;;;;5112548;28;20036;-75
2021/05/25 04:50:40;;;;;;;0.55;0.38;;;8.50;84.60;;;;;;5077450;28;20395;-75
2021/05/25 04:53:06;;;;;;;0.52;0.40;;;8.50;84.60;;;;;;5112855;28;20047;-76
2021/05/25 04:55:32;;;;;;;0.68;0.40;;;8.50;84.50;;;;;;5112315;28;20130;-75
2021/05/25 04:57:58;;;;;;;0.82;0.60;;;8.60;84.50;;;;;;5077221;28;20046;-76
2021/05/25 05:00:26;;;;;;;0.82;0.43;;;8.60;84.30;;;;;;5112246;28;20036;-76
2021/05/25 05:02:52;;;;;;;0.47;0.47;;;8.70;84.30;;;;;;5094509;28;20040;-75
2021/05/25 05:05:19;;;;;;;0.55;0.50;;;8.70;84.20;;;;;;5095039;28;20134;-75
2021/05/25 05:07:45;;;;;;;0.70;0.55;;;8.70;84.20;;;;;;5097443;28;20469;-77
2021/05/25 05:10:11;;;;;;;0.50;0.50;;;8.80;84.20;;;;;;5116379;28;20043;-76
2021/05/25 05:12:37;;;;;;;0.50;0.43;;;8.90;84.10;;;;;;5081126;28;20048;-75
2021/05/25 05:15:05;;;;;;;0.40;0.40;;;8.90;84.00;;;;;;5078483;28;20172;-75
2021/05/25 05:17:31;;;;;;;0.50;0.50;;;8.90;83.90;;;;;;5115566;28;20560;-75
2021/05/25 05:19:57;;;;;;;0.75;0.45;;;9.00;83.80;;;;;;5097944;28;20374;-75
2021/05/25 05:22:24;;;;;;;0.30;0.30;;;9.00;83.80;;;;;;5097425;28;20511;-75
2021/05/25 05:24:50;;;;;;;0.40;0.40;;;9.00;83.80;;;;;;5115504;28;20039;-75
2021/05/25 05:27:16;;;;;;;0.30;0.30;;;9.10;83.80;;;;;;5096394;28;20089;-77
2021/05/25 05:29:42;;;;;;;0.40;0.30;;;9.20;83.80;;;;;;5097832;28;20058;-75
2021/05/25 05:32:08;;;;;;;0.40;0.40;;;9.20;83.70;;;;;;5116045;28;20040;-75
2021/05/25 05:34:34;;;;;;;0.40;0.40;;;9.30;83.70;;;;;;5096855;28;20513;-76
2021/05/25 05:36:59;;;;;;;0.60;0.60;;;9.30;83.70;;;;;;5097066;28;20043;-75
2021/05/25 05:39:25;;;;;;;0.47;0.32;;;9.40;83.60;;;;;;5063570;28;20084;-75
2021/05/25 05:41:51;;;;;;;0.50;0.43;;;9.40;83.50;;;;;;5097048;28;20043;-75
2021/05/25 05:44:17;;;;;;;0.50;0.50;;;9.40;83.50;;;;;;5080034;28;20043;-76
2021/05/25 05:46:43;;;;;;;0.47;0.47;;;9.40;83.40;;;;;;5063495;28;20044;-76
2021/05/25 05:49:08;;;;;;;0.40;0.40;;;9.50;83.60;;;;;;5115635;28;20036;-77
2021/05/25 05:51:34;;;;;;;0.60;0.43;;;9.40;83.60;;;;;;5115232;28;20070;-75
2021/05/25 05:54:00;;;;;;;0.30;0.30;;;9.40;83.60;;;;;;5115193;28;20044;-75
2021/05/25 05:56:26;;;;;;;0.40;0.40;;;9.50;83.60;;;;;;5097510;28;20079;-75
2021/05/25 05:58:52;;;;;;;0.20;0.20;;;9.40;83.60;;;;;;5096388;28;20117;-75
2021/05/25 06:01:19;;;;;;;0.30;0.30;;;9.40;83.60;;;;;;5080441;28;20108;-74
2021/05/25 06:03:45;;;;;;;0.63;0.55;;;9.50;83.70;;;;;;5079868;28;20126;-75
2021/05/25 06:06:12;;;;;;;1.90;0.85;;;9.50;83.60;;;;;;5114837;28;20036;-78
2021/05/25 06:08:39;;;;;;;0.70;0.60;;;9.60;83.60;;;;;;5114701;28;20035;-75
2021/05/25 06:11:05;;;;;;;0.75;0.60;;;9.60;83.70;;;;;;5114824;28;20039;-76
2021/05/25 06:13:31;;;;;;;0.70;0.65;;;9.60;83.70;;;;;;5096251;28;20028;-74
2021/05/25 06:16:02;;;;;;;0.60;0.60;;;9.60;83.70;;;;;;5114614;28;20071;-75
2021/05/25 06:18:29;;;;;;;0.40;0.40;;;9.60;83.70;;;;;;5094718;28;20130;-75
2021/05/25 06:20:55;;;;;;;0.60;0.52;;;9.60;83.70;;;;;;5096217;28;20046;-75
2021/05/25 06:23:21;;;;;;;0.70;0.70;;;9.60;83.70;;;;;;5079639;28;20437;-74
2021/05/25 06:25:47;;;;;;;0.65;0.52;;;9.60;83.60;;;;;;5114670;28;20133;-74
2021/05/25 06:28:13;;;;;;;0.70;0.70;;;9.70;83.70;;;;;;5114820;28;20039;-74
2021/05/25 06:30:39;;;;;;;0.65;0.65;;;9.70;83.70;;;;;;5096459;28;20490;-75
2021/05/25 06:33:05;;;;;;;1.00;0.70;;;9.70;83.60;;;;;;5079690;28;20126;-74
2021/05/25 06:35:33;;;;;;;0.85;0.80;;;9.80;83.50;;;;;;5096765;28;20120;-75
2021/05/25 06:37:59;;;;;;;0.80;0.50;;;9.80;83.40;;;;;;5079548;28;20047;-75
2021/05/25 06:40:25;;;;;;;0.93;0.65;;;9.90;84.00;;;;;;5114484;28;20097;-74
2021/05/25 06:42:51;;;;;;;0.65;0.50;;;9.90;83.40;;;;;;5114471;28;20039;-76
2021/05/25 06:45:17;;;;;;;0.70;0.70;;;9.90;83.40;;;;;;5096905;28;20378;-76
2021/05/25 06:47:43;;;;;;;0.80;0.52;;;10.10;83.60;;;;;;5096191;28;20046;-76
2021/05/25 06:50:10;;;;;;;0.60;0.60;;;10.20;83.20;;;;;;5095959;28;20047;-75
2021/05/25 06:52:36;;;;;;;0.68;0.60;;;10.30;82.80;;;;;;5080203;28;20054;-75
2021/05/25 06:55:03;;;;;;;1.15;1.00;;;10.30;82.70;;;;;;5114292;28;20043;-73
2021/05/25 06:57:29;;;;;;;1.10;0.90;;;10.30;82.80;;;;;;5095555;28;20425;-77
2021/05/25 06:59:55;;;;;;;1.13;1.00;;;10.30;82.80;;;;;;5113970;28;20071;-73
2021/05/25 07:02:23;;;;;;;0.80;0.80;;;10.30;83.00;;;;;;5114208;28;20074;-72
2021/05/25 07:04:50;;;;;;;0.93;0.80;;;10.30;83.00;;;;;;5095982;28;20039;-74
2021/05/25 07:07:16;;;;;;;0.80;0.80;;;10.30;83.20;;;;;;5113983;28;20058;-76
2021/05/25 07:09:42;;;;;;;0.70;0.70;;;10.30;83.10;;;;;;5114377;28;20035;-76
2021/05/25 07:12:08;;;;;;;0.90;0.90;;;10.40;82.90;;;;;;5095970;28;20031;-75
2021/05/25 07:14:34;;;;;;;0.70;0.70;;;10.40;82.80;;;;;;5096295;28;20032;-74
2021/05/25 07:16:59;;;;;;;0.90;0.80;;;10.50;82.80;;;;;;5095708;28;20055;-76
2021/05/25 07:19:25;;;;;;;1.13;1.00;;;10.60;82.70;;;;;;5096281;28;20036;-75
2021/05/25 07:21:51;;;;;;;1.17;1.00;;;10.70;82.70;;;;;;5113856;28;20444;-75
2021/05/25 07:24:16;;;;;;;1.00;0.90;;;10.70;82.40;;;;;;5078665;28;20042;-75
2021/05/25 07:26:42;;;;;;;1.35;0.90;;;10.80;82.40;;;;;;5094238;28;20079;-75
2021/05/25 07:29:08;;;;;;;0.68;0.68;;;10.80;82.40;;;;;;5113923;28;20495;-76
2021/05/25 07:31:34;;;;;;;0.70;0.70;;;10.70;82.40;;;;;;5095613;28;20043;-74
2021/05/25 07:33:59;;;;;;;1.50;1.00;;;10.70;82.60;;;;;;5094389;28;20044;-75
2021/05/25 07:36:25;;;;;;;1.60;1.00;;;10.70;82.60;;;;;;5095591;28;20483;-75
2021/05/25 07:38:51;;;;;;;0.85;0.80;;;10.80;82.80;;;;;;5113516;28;20487;-75
2021/05/25 07:41:17;;;;;;;0.75;0.75;;;10.80;82.80;;;;;;5113423;28;20049;-76
2021/05/25 07:43:44;;;;;;;0.98;0.90;;;11.00;82.60;;;;;;5078434;28;20039;-75
2021/05/25 07:46:11;;;;;;;1.73;1.00;;;11.20;82.30;;;;;;5113354;28;20118;-74
2021/05/25 07:48:36;;;;;;;0.70;0.65;;;11.40;81.90;;;;;;5113243;28;20122;-74
2021/05/25 07:51:03;;;;;;;1.52;0.90;;;11.40;81.70;;;;;;5078344;28;20063;-75
2021/05/25 07:53:29;;;;;;;1.38;1.10;;;11.50;81.50;;;;;;5095435;28;20044;-75
2021/05/25 07:55:55;;;;;;;1.15;0.70;;;11.50;81.60;;;;;;5093544;28;20036;-76
2021/05/25 07:58:20;;;;;;;0.80;0.80;;;11.50;82.20;;;;;;5077978;28;20578;-77
2021/05/25 08:00:46;;;;;;;1.15;0.85;;;11.50;81.70;;;;;;5113119;28;20036;-76
2021/05/25 08:03:13;;;;;;;0.90;0.88;;;11.70;81.70;;;;;;5076045;28;20487;-75
2021/05/25 08:05:39;;;;;;;0.93;0.70;;;11.80;81.40;;;;;;5094556;28;20443;-76
2021/05/25 08:08:07;;;;;;;0.90;0.80;;;11.80;81.10;;;;;;5095575;28;20043;-76
2021/05/25 08:10:34;;;;;;;0.75;0.75;;;11.80;81.10;;;;;;5113028;28;20558;-75
2021/05/25 08:13:00;;;;;;;0.63;0.63;;;11.80;81.20;;;;;;5095344;28;20040;-75
2021/05/25 08:15:27;;;;;;;0.70;0.60;;;11.70;81.60;;;;;;5077730;28;20039;-75
2021/05/25 08:18:04;;;;;;;0.98;0.52;;;11.60;82.00;;;;;;5077975;28;20059;-76
2021/05/25 08:20:31;;;;;;;0.70;0.70;;;11.60;82.30;;;;;;5112709;28;20043;-74
2021/05/25 08:22:59;;;;;;;0.43;0.43;;;11.70;82.30;;;;;;5095329;28;20044;-74
2021/05/25 08:25:29;;;;;;;0.90;0.50;;;11.70;82.20;;;;;;5094517;28;20114;-73
2021/05/25 08:27:56;;;;;;;0.50;0.50;;;11.90;82.40;;;;;;5112599;28;20075;-75
2021/05/25 08:30:24;;;;;;;0.57;0.57;;;12.30;81.80;;;;;;5077362;28;20462;-76
2021/05/25 08:32:51;;;;;;;0.70;0.70;;;12.50;81.30;;;;;;5094768;28;20093;-76
2021/05/25 08:35:18;;;;;;;0.60;0.60;;;12.80;80.60;;;;;;5094241;28;20046;-75
2021/05/25 08:37:47;;;;;;;0.52;0.52;;;13.10;80.50;;;;;;5113022;28;20035;-74
2021/05/25 08:40:14;;;;;;;1.02;0.68;;;13.40;79.70;;;;;;5093871;28;20134;-75
2021/05/25 08:42:40;;;;;;;0.50;0.50;;;13.20;79.90;;;;;;5094302;28;20074;-73
2021/05/25 08:45:09;;;;;;;0.50;0.40;;;13.10;79.70;;;;;;5113023;28;20027;-75
2021/05/25 08:47:35;;;;;;;0.40;0.40;;;13.00;80.40;;;;;;5112597;28;20039;-73
2021/05/25 08:50:04;;;;;;;0.40;0.30;;;13.20;80.70;;;;;;5092317;28;20044;-74
2021/05/25 08:52:30;;;;;;;0.60;0.60;;;13.40;80.40;;;;;;5094288;28;20054;-78
2021/05/25 08:54:56;;;;;;;0.30;0.30;;;13.60;79.80;;;;;;5112972;28;20048;-74
2021/05/25 08:57:22;;;;;;;0.32;0.32;;;13.70;79.10;;;;;;5112751;28;20051;-75
2021/05/25 08:59:48;;;;;;;0.60;0.30;;;13.70;79.30;;;;;;5060760;28;20036;-75
2021/05/25 09:02:14;;;;;;;1.35;0.50;;;13.60;79.50;;;;;;5077303;28;20130;-76
2021/05/25 09:04:58;;;;;;;0.45;0.35;;;13.90;79.80;;;;;;5094266;28;20108;-74
2021/05/25 09:07:44;;;;;;;0.40;0.40;;;14.20;79.20;;;;;;5111578;28;20040;-75
2021/05/25 09:10:15;;;;;;;0.40;0.40;;;14.20;78.20;;;;;;5093887;28;20120;-75
2021/05/25 09:12:45;;;;;;;0.38;0.38;;;13.60;78.20;;;;;;5093916;28;20044;-75
2021/05/25 09:15:13;;;;;;;0.30;0.20;;;13.10;79.60;;;;;;5094118;28;20406;-75
2021/05/25 09:17:39;;;;;;;0.20;0.20;;;12.50;81.00;;;;;;5093887;28;20135;-75
2021/05/25 09:20:07;;;;;;;0.10;0.10;;;12.00;82.30;;;;;;5093884;28;20494;-74
2021/05/25 09:22:42;;;;;;;0.30;0.22;;;11.60;83.50;;;;;;5112488;28;20032;-74
2021/05/25 09:25:20;;;;;;;0.10;0.10;;;11.40;84.10;;;;;;5094390;28;20077;-75
2021/05/25 09:27:59;;;;;;;0.65;0.20;;;11.20;84.30;;;;;;5111906;28;20044;-75
2021/05/25 09:30:28;;;;;;;0.20;0.20;;;11.10;84.50;;;;;;5095372;28;20662;-75
2021/05/25 09:33:04;;;;;;;0.20;0.20;;;11.10;84.60;;;;;;5077351;28;20036;-75
2021/05/25 09:35:32;;;;;;;0.85;0.20;;;11.10;84.60;;;;;;5112523;28;20055;-76
2021/05/25 09:38:01;;;;;;;0.30;0.28;;;11.10;84.70;;;;;;5093628;28;20499;-74
2021/05/25 09:40:29;;;;;;;0.20;0.20;;;11.10;84.50;;;;;;5111805;28;20040;-75
2021/05/25 09:43:14;;;;;;;0.20;0.10;;;11.10;84.40;;;;;;5093760;28;20117;-75
2021/05/25 09:45:55;;;;;;;0.20;0.13;;;11.20;84.30;;;;;;5093872;28;20070;-74
2021/05/25 09:48:23;;;;;;;0.10;0.10;;;11.30;84.20;;;;;;5112009;28;20043;-74
2021/05/25 09:50:49;;;;;;;0.10;0.10;;;11.40;84.00;;;;;;5093834;28;20039;-74
2021/05/25 09:53:23;;;;;;;0.15;0.15;;;11.50;84.40;;;;;;5113957;28;20054;-73
2021/05/25 09:55:52;;;;;;;0.10;0.10;;;11.60;83.50;;;;;;5097023;28;20092;-75
2021/05/25 09:58:19;;;;;;;0.38;0.20;;;11.80;83.30;;;;;;5115100;28;20054;-76
2021/05/25 10:00:46;;;;;;;0.20;0.20;;;11.80;82.90;;;;;;5096867;28;20402;-73
2021/05/25 10:03:16;;;;;;;0.35;0.35;;;11.90;82.80;;;;;;5115358;28;20031;-75
2021/05/25 10:05:45;;;;;;;0.30;0.30;;;12.00;82.80;;;;;;5079906;28;20028;-75
2021/05/25 10:08:12;;;;;;;0.20;0.20;;;12.10;82.70;;;;;;5096740;28;20040;-74
2021/05/25 10:10:39;;;;;;;0.30;0.30;;;12.10;82.40;;;;;;5096981;28;20516;-75
2021/05/25 10:13:05;;;;;;;0.45;0.28;;;12.20;82.40;;;;;;5096896;28;20048;-75
2021/05/25 10:15:31;;;;;;;0.55;0.35;;;12.40;82.40;;;;;;5080004;28;20491;-76
2021/05/25 10:20:45;;;;;;;0.40;0.30;;;12.80;81.90;;;;;;5099353;28;20054;-75
2021/05/25 10:23:12;;;;;;;0.52;0.30;;;13.00;81.30;;;;;;5079537;28;20085;-75
2021/05/25 10:25:41;;;;;;;0.50;0.50;;;12.90;81.10;;;;;;5079515;28;20035;-74
2021/05/25 10:28:09;;;;;;;0.50;0.20;;;12.90;81.40;;;;;;5114795;28;20047;-74
2021/05/25 10:30:40;;;;;;;0.75;0.40;;;13.00;81.70;;;;;;5079845;28;20047;-75
2021/05/25 10:33:26;;;;;;;0.38;0.30;;;13.10;81.20;;;;;;5114608;28;20075;-76
2021/05/25 10:36:08;;;;;;;0.75;0.32;;;12.80;81.40;;;;;;5065657;28;20483;-75
2021/05/25 10:38:52;;;;;;;;;;;12.70;81.80;;;;;;5115222;28;20047;-75
2021/05/25 10:41:28;;;;;;;0.20;0.20;;;12.40;82.30;;;;;;5096330;28;19964;-75
2021/05/25 10:43:55;;;;;;;0.20;0.20;;;12.10;83.00;;;;;;5114889;28;20112;-75
2021/05/25 10:46:25;;;;;;;0.90;0.20;;;11.90;83.50;;;;;;5096407;28;20042;-74
2021/05/25 10:49:08;;;;;;;0.30;0.30;;;11.80;83.90;;;;;;5097269;28;20101;-73
2021/05/25 10:52:06;;;;;;;0.30;0.30;;;11.70;84.10;;;;;;5097131;28;20040;-73
2021/05/25 10:54:41;;;;;;;0.45;0.30;;;11.70;84.20;;;;;;5099611;28;20123;-74
2021/05/25 10:57:37;;;;;;;0.50;0.30;;;11.80;84.30;;;;;;5114511;28;20123;-74
2021/05/25 11:00:07;;;;;;;1.25;0.40;;;11.80;84.10;;;;;;5096111;28;20490;-74
2021/05/25 11:02:44;;;;;;;0.40;0.40;;;11.90;84.10;;;;;;5095495;28;20040;-75
2021/05/25 11:05:38;;;;;;;1.10;0.32;;;12.00;83.70;;;;;;5113927;28;20034;-74
2021/05/25 11:08:24;;;;;;;1.52;0.47;;;12.30;83.50;;;;;;5113881;28;20044;-75
2021/05/25 11:10:53;;;;;;;0.93;0.50;;;12.60;82.90;;;;;;5096248;28;20390;-75
2021/05/25 11:13:21;;;;;;;0.50;0.50;;;12.90;82.10;;;;;;5079266;28;20046;-73
2021/05/25 11:16:20;;;;;;;0.50;0.50;;;13.20;81.60;;;;;;5095698;28;20035;-74
2021/05/25 11:19:06;;;;;;;1.38;0.68;;;13.50;80.90;;;;;;5099423;28;20181;-74
2021/05/25 11:22:00;;;;;;;0.50;0.50;;;13.60;80.40;;;;;;5099035;28;20140;-74
2021/05/25 11:24:50;;;;;;;1.33;0.50;;;13.80;80.20;;;;;;5097734;28;20623;-73
2021/05/25 11:27:43;;;;;;;0.40;0.40;;;14.00;79.80;;;;;;5114006;28;20064;-74
2021/05/25 11:30:23;;;;;;;0.40;0.40;;;14.30;79.40;;;;;;5113447;28;20054;-73
2021/05/25 11:32:52;;;;;;;0.35;0.35;;;14.60;78.80;;;;;;5113619;28;20040;-75
2021/05/25 11:35:21;;;;;;;0.40;0.40;;;14.70;78.50;;;;;;5078546;28;20036;-73
2021/05/25 11:37:52;;;;;;;0.40;0.40;;;14.80;78.10;;;;;;5113327;28;20050;-74
2021/05/25 11:40:21;;;;;;;0.43;0.30;;;15.00;77.90;;;;;;5095455;28;20048;-72
2021/05/25 11:42:49;;;;;;;0.52;0.50;;;15.10;77.60;;;;;;5095506;28;20032;-73
2021/05/25 11:45:16;;;;;;;1.27;0.50;;;15.20;77.40;;;;;;5095267;28;20425;-74
2021/05/25 11:47:42;;;;;;;0.85;0.40;;;15.20;76.90;;;;;;5061922;28;20463;-74
2021/05/25 11:50:11;;;;;;;1.38;0.50;;;15.20;77.00;;;;;;5093743;28;20072;-74
2021/05/25 11:52:39;;;;;;;0.75;0.43;;;15.10;77.20;;;;;;5095033;28;20549;-74
2021/05/25 11:55:08;;;;;;;0.45;0.30;;;15.00;77.50;;;;;;5094880;28;20035;-75
2021/05/25 11:57:44;;;;;;;1.02;0.40;;;14.80;77.80;;;;;;5113044;28;20047;-74
2021/05/25 12:00:13;;;;;;;0.77;0.50;;;14.70;78.20;;;;;;5062066;28;20084;-75
2021/05/25 12:02:41;;;;;;;0.40;0.40;;;14.60;78.40;;;;;;5094693;28;20039;-76
2021/05/25 12:05:13;;;;;;;0.30;0.30;;;14.60;78.60;;;;;;5077940;28;20122;-74
2021/05/25 12:07:43;;;;;;;0.32;0.30;;;14.40;78.60;;;;;;5113287;28;20039;-74
2021/05/25 12:10:12;;;;;;;0.40;0.40;;;14.30;78.70;;;;;;5113116;28;20040;-75
2021/05/25 12:12:41;;;;;;;0.88;0.40;;;14.30;78.70;;;;;;5094961;28;20044;-76
2021/05/25 12:15:25;;;;;;;0.30;0.30;;;14.20;78.80;;;;;;5094169;28;20096;-75
2021/05/25 12:17:53;;;;;;;0.25;0.25;;;14.20;78.80;;;;;;5112882;28;20118;-72
2021/05/25 12:20:21;;;;;;;0.73;0.28;;;14.20;78.80;;;;;;5112739;28;20379;-73
2021/05/25 12:22:51;;;;;;;0.25;0.25;;;14.20;78.80;;;;;;5077796;28;20047;-72
2021/05/25 12:25:20;;;;;;;0.37;0.37;;;14.20;78.60;;;;;;5112733;28;20125;-73
2021/05/25 12:27:47;;;;;;;0.60;0.30;;;14.30;78.30;;;;;;5112799;28;20414;-73
2021/05/25 12:30:16;;;;;;;0.80;0.38;;;14.30;78.10;;;;;;5113075;28;20109;-73
2021/05/25 12:32:43;;;;;;;0.68;0.40;;;14.20;77.70;;;;;;5112940;28;20035;-73
2021/05/25 12:35:11;;;;;;;0.30;0.30;;;14.20;77.70;;;;;;5061031;28;20035;-73
2021/05/25 12:37:37;;;;;;;0.40;0.40;;;14.20;77.70;;;;;;5112443;28;20043;-73
2021/05/25 12:40:06;;;;;;;0.52;0.30;;;14.10;77.70;;;;;;5094246;28;20402;-73
2021/05/25 12:42:35;;;;;;;0.30;0.20;;;14.00;77.70;;;;;;5077500;28;20066;-72
2021/05/25 12:45:08;;;;;;;0.22;0.22;;;14.00;77.80;;;;;;5112692;28;20070;-73
2021/05/25 12:47:52;;;;;;;0.30;0.30;;;13.80;78.00;;;;;;5077543;28;21432;-74
2021/05/25 12:50:36;;;;;;;0.40;0.20;;;13.60;78.40;;;;;;5094365;28;20122;-74
2021/05/25 12:53:12;;;;;;;0.30;0.30;;;13.50;78.60;;;;;;5094673;28;20445;-72
2021/05/25 12:55:51;;;;;;;0.75;0.40;;;13.40;78.80;;;;;;5094729;28;20039;-73
2021/05/25 12:58:35;;;;;;;0.38;0.20;;;13.30;78.90;;;;;;5118561;28;20133;-75
2021/05/25 13:01:24;;;;;;;1.35;0.30;;;13.50;78.90;;;;;;5094566;28;20050;-74
2021/05/25 13:03:51;;;;;;;0.20;0.20;;;13.60;78.40;;;;;;5112433;28;20490;-74